Time;durP1;ratioP1;P1;durP2;ratioP2;P2;SDS_P1;SDS_P2;PMS_P1;PMS_P2;Temp;Humidity;BMP_temperature;BMP_pressure;BME280_temperature;BME280_humidity;BME280_pressure;Samples;Min_cycle;Max_cycle;Signal;HPM_P1;HPM_P2
2022/06/30 00:01:45;;;;;;;5.75;3.53;;;25.60;71.80;;;;;;5016292;28;20042;-73
2022/06/30 00:04:12;;;;;;;5.85;3.00;;;25.50;71.70;;;;;;5021347;28;20056;-73
2022/06/30 00:06:40;;;;;;;5.43;3.38;;;25.50;71.50;;;;;;5016498;28;20056;-73
2022/06/30 00:09:07;;;;;;;4.97;2.88;;;25.50;71.70;;;;;;5019291;28;20084;-73
2022/06/30 00:11:34;;;;;;;6.38;3.65;;;25.50;71.50;;;;;;5021489;28;20500;-73
2022/06/30 00:14:01;;;;;;;5.20;3.17;;;25.40;71.30;;;;;;5023039;28;20046;-73
2022/06/30 00:16:28;;;;;;;7.20;3.92;;;25.40;72.20;;;;;;5020874;28;20366;-73
2022/06/30 00:18:56;;;;;;;7.13;2.95;;;25.40;72.50;;;;;;5021029;28;20049;-73
2022/06/30 00:21:23;;;;;;;5.80;3.10;;;25.30;73.50;;;;;;5018354;28;20392;-74
2022/06/30 00:23:50;;;;;;;3.92;3.28;;;25.30;73.10;;;;;;5020759;28;20076;-73
2022/06/30 00:26:17;;;;;;;6.63;2.80;;;25.30;72.30;;;;;;5020418;28;20037;-73
2022/06/30 00:28:46;;;;;;;6.60;3.15;;;25.30;72.20;;;;;;5021420;28;20050;-73
2022/06/30 00:31:13;;;;;;;6.40;2.75;;;25.20;71.90;;;;;;5020756;28;20119;-73
2022/06/30 00:33:40;;;;;;;6.07;3.30;;;25.20;71.60;;;;;;5018132;28;20045;-73
2022/06/30 00:36:07;;;;;;;5.97;3.92;;;25.20;72.60;;;;;;5022906;28;20055;-73
2022/06/30 00:38:34;;;;;;;5.30;2.92;;;25.20;73.30;;;;;;5023262;28;20053;-73
2022/06/30 00:41:01;;;;;;;6.30;3.30;;;25.20;73.70;;;;;;5022892;28;20095;-73
2022/06/30 00:43:28;;;;;;;5.78;3.25;;;25.10;73.70;;;;;;5016573;28;20053;-73
2022/06/30 00:45:56;;;;;;;8.23;3.60;;;25.00;74.00;;;;;;5021807;28;20481;-73
2022/06/30 00:48:23;;;;;;;4.15;2.95;;;25.10;74.00;;;;;;5022298;28;20907;-73
2022/06/30 00:50:50;;;;;;;3.95;3.00;;;25.10;74.10;;;;;;5021243;28;20057;-73
2022/06/30 00:53:19;;;;;;;5.32;3.40;;;25.00;72.90;;;;;;5016190;28;20125;-73
2022/06/30 00:55:47;;;;;;;6.00;3.28;;;25.00;73.00;;;;;;5020998;28;20041;-74
2022/06/30 00:58:17;;;;;;;6.40;3.28;;;25.00;72.40;;;;;;5016427;28;20044;-73
2022/06/30 01:00:48;;;;;;;3.85;3.00;;;24.90;72.80;;;;;;5020045;28;20054;-73
2022/06/30 01:03:17;;;;;;;9.18;3.72;;;25.00;73.20;;;;;;5015403;28;20883;-73
2022/06/30 01:05:45;;;;;;;6.97;3.38;;;24.90;72.90;;;;;;5020480;28;20049;-73
2022/06/30 01:08:15;;;;;;;4.53;3.00;;;24.90;72.60;;;;;;5015076;28;20500;-73
2022/06/30 01:13:28;;;;;;;5.00;2.85;;;24.90;72.90;;;;;;5019533;28;20041;-73
2022/06/30 01:15:56;;;;;;;5.05;2.70;;;24.80;73.20;;;;;;5019455;28;20065;-73
2022/06/30 01:18:23;;;;;;;6.70;3.55;;;24.90;74.30;;;;;;5019911;28;20413;-73
2022/06/30 01:20:50;;;;;;;5.95;3.20;;;24.80;73.60;;;;;;5015783;28;22480;-72
2022/06/30 01:23:17;;;;;;;3.30;2.80;;;24.80;73.90;;;;;;5018275;28;20048;-73
2022/06/30 01:25:46;;;;;;;5.07;2.95;;;24.80;73.70;;;;;;5008820;28;20522;-73
2022/06/30 01:28:13;;;;;;;4.57;3.13;;;24.80;73.80;;;;;;5018310;28;20127;-73
2022/06/30 01:30:41;;;;;;;7.65;3.85;;;24.70;72.50;;;;;;5024177;28;20041;-75
2022/06/30 01:33:08;;;;;;;5.50;3.08;;;24.70;72.50;;;;;;5019958;28;20042;-73
2022/06/30 01:35:35;;;;;;;6.20;3.30;;;24.70;72.50;;;;;;5018908;28;20666;-74
2022/06/30 01:38:03;;;;;;;8.48;3.10;;;24.70;72.10;;;;;;5034049;28;20124;-74
2022/06/30 01:40:33;;;;;;;4.45;2.78;;;24.70;72.30;;;;;;5022093;28;20068;-73
2022/06/30 01:43:01;;;;;;;5.05;3.10;;;24.60;72.70;;;;;;5019178;28;20037;-73
2022/06/30 01:45:29;;;;;;;6.75;2.95;;;24.60;73.00;;;;;;5020486;28;20107;-73
2022/06/30 01:47:56;;;;;;;6.35;3.28;;;24.60;72.10;;;;;;5006010;28;20045;-73
2022/06/30 01:50:27;;;;;;;4.00;2.95;;;24.60;72.40;;;;;;5021987;28;20508;-73
2022/06/30 01:52:54;;;;;;;9.40;3.50;;;24.60;71.70;;;;;;5021245;28;20041;-73
2022/06/30 01:55:22;;;;;;;4.75;2.83;;;24.60;73.60;;;;;;5022830;28;20071;-73
2022/06/30 01:57:49;;;;;;;4.43;3.00;;;24.50;72.30;;;;;;5020090;28;20079;-73
2022/06/30 02:00:19;;;;;;;5.65;3.08;;;24.50;72.20;;;;;;5013538;28;20111;-73
2022/06/30 02:02:48;;;;;;;9.95;3.00;;;24.50;71.50;;;;;;5019987;28;20037;-73
2022/06/30 02:05:16;;;;;;;5.55;2.70;;;24.50;73.40;;;;;;5021220;28;20049;-73
2022/06/30 02:07:43;;;;;;;6.13;2.90;;;24.40;73.10;;;;;;5015313;28;20045;-74
2022/06/30 02:10:14;;;;;;;3.92;2.75;;;24.40;72.50;;;;;;5018668;28;23440;-73
2022/06/30 02:12:48;;;;;;;4.80;2.78;;;24.30;74.40;;;;;;5019085;28;20657;-74
2022/06/30 02:15:18;;;;;;;5.22;2.67;;;24.30;74.30;;;;;;5013702;28;20049;-73
2022/06/30 02:17:47;;;;;;;4.85;2.70;;;24.30;72.90;;;;;;5017386;28;20112;-73
2022/06/30 02:20:18;;;;;;;3.85;3.13;;;24.30;72.50;;;;;;5022042;28;20647;-73
2022/06/30 02:22:45;;;;;;;7.30;3.50;;;24.20;73.20;;;;;;5016045;28;20129;-75
2022/06/30 02:25:12;;;;;;;6.68;3.65;;;24.20;74.40;;;;;;5021735;28;20570;-73
2022/06/30 02:27:39;;;;;;;4.60;2.45;;;24.20;73.90;;;;;;5019476;28;20042;-72
2022/06/30 02:30:07;;;;;;;3.95;3.10;;;24.10;73.50;;;;;;5022622;28;20128;-75
2022/06/30 02:32:35;;;;;;;5.88;3.15;;;24.10;74.00;;;;;;5019697;28;20484;-74
2022/06/30 02:35:03;;;;;;;6.00;3.38;;;24.00;73.80;;;;;;5021821;28;20042;-72
2022/06/30 02:37:30;;;;;;;6.28;3.10;;;24.00;74.70;;;;;;5020774;28;20555;-74
2022/06/30 02:39:57;;;;;;;4.32;3.30;;;24.10;74.60;;;;;;5016610;28;20144;-74
2022/06/30 02:42:24;;;;;;;4.85;2.78;;;24.00;75.50;;;;;;5030535;28;20049;-74
2022/06/30 02:44:51;;;;;;;10.80;2.78;;;23.90;74.50;;;;;;5014835;28;20519;-74
2022/06/30 02:47:18;;;;;;;5.93;3.08;;;23.90;75.80;;;;;;5018158;28;20064;-74
2022/06/30 02:49:45;;;;;;;5.53;3.17;;;23.90;75.50;;;;;;5024442;28;20049;-74
2022/06/30 02:52:12;;;;;;;5.60;3.20;;;23.70;73.60;;;;;;5007562;28;20069;-74
2022/06/30 02:54:39;;;;;;;5.93;3.42;;;23.80;75.80;;;;;;5023253;28;20519;-74
2022/06/30 02:57:07;;;;;;;5.30;3.17;;;23.90;75.60;;;;;;5022073;28;20038;-74
2022/06/30 02:59:34;;;;;;;4.43;2.80;;;23.90;78.00;;;;;;5021370;28;20099;-74
2022/06/30 03:02:01;;;;;;;4.53;3.08;;;23.90;77.80;;;;;;5022756;28;20029;-74
2022/06/30 03:04:28;;;;;;;5.13;2.90;;;23.90;77.00;;;;;;5023785;28;20057;-74
2022/06/30 03:06:55;;;;;;;5.05;3.22;;;23.90;77.40;;;;;;5007751;28;20049;-74
2022/06/30 03:09:23;;;;;;;6.40;3.25;;;23.90;77.80;;;;;;5024965;28;20095;-75
2022/06/30 03:11:51;;;;;;;4.88;3.50;;;23.80;78.10;;;;;;5022515;28;20061;-74
2022/06/30 03:14:18;;;;;;;4.60;3.10;;;23.80;77.50;;;;;;5023301;28;20095;-75
2022/06/30 03:16:46;;;;;;;3.45;2.58;;;23.90;77.20;;;;;;5023066;28;20868;-74
2022/06/30 03:19:13;;;;;;;5.93;3.00;;;23.80;76.00;;;;;;5022063;28;20068;-74
2022/06/30 03:21:40;;;;;;;7.53;2.95;;;23.80;75.80;;;;;;5021576;28;20034;-74
2022/06/30 03:24:08;;;;;;;5.25;3.38;;;23.80;77.00;;;;;;5022834;28;20096;-74
2022/06/30 03:26:36;;;;;;;5.95;3.15;;;23.70;76.80;;;;;;5019514;28;20049;-74
2022/06/30 03:29:04;;;;;;;11.48;3.60;;;23.80;78.40;;;;;;5021699;28;20107;-74
2022/06/30 03:31:32;;;;;;;8.38;3.50;;;23.80;78.20;;;;;;5022783;28;20060;-72
2022/06/30 03:33:59;;;;;;;7.10;3.13;;;23.80;77.90;;;;;;5021123;28;20037;-72
2022/06/30 03:36:26;;;;;;;5.75;3.42;;;23.80;79.40;;;;;;5021713;28;20394;-74
2022/06/30 03:38:54;;;;;;;7.90;3.50;;;23.80;78.10;;;;;;5006523;28;20053;-72
2022/06/30 03:41:21;;;;;;;8.05;3.67;;;23.80;78.00;;;;;;5020140;28;20038;-73
2022/06/30 03:43:49;;;;;;;7.15;3.22;;;23.80;78.40;;;;;;5035371;28;20041;-73
2022/06/30 03:46:16;;;;;;;5.97;3.42;;;23.80;76.50;;;;;;5024397;28;20049;-73
2022/06/30 03:48:43;;;;;;;5.28;2.88;;;23.90;79.10;;;;;;5022484;28;20048;-73
2022/06/30 03:51:11;;;;;;;5.78;2.88;;;23.80;75.50;;;;;;5022623;28;20061;-73
2022/06/30 03:53:39;;;;;;;4.75;3.35;;;23.70;75.00;;;;;;5020976;28;20036;-73
2022/06/30 03:56:06;;;;;;;4.97;2.72;;;23.80;75.60;;;;;;5007624;28;20049;-73
2022/06/30 03:58:34;;;;;;;4.70;3.00;;;23.90;76.30;;;;;;5007206;28;20103;-73
2022/06/30 04:01:01;;;;;;;7.47;3.70;;;23.90;76.00;;;;;;5020350;28;20408;-73
2022/06/30 04:03:29;;;;;;;5.25;3.55;;;24.00;75.20;;;;;;5023338;28;20052;-73
2022/06/30 04:05:56;;;;;;;5.78;2.75;;;24.00;74.80;;;;;;5031994;28;20045;-73
2022/06/30 04:08:23;;;;;;;4.32;2.88;;;24.10;75.40;;;;;;5014552;28;20064;-73
2022/06/30 04:10:51;;;;;;;5.00;3.03;;;24.20;76.00;;;;;;5022208;28;20049;-73
2022/06/30 04:13:18;;;;;;;6.45;2.85;;;24.20;77.20;;;;;;5023009;28;20048;-73
2022/06/30 04:15:46;;;;;;;9.38;3.33;;;24.30;77.00;;;;;;5015890;28;20416;-72
2022/06/30 04:18:13;;;;;;;5.28;3.05;;;24.30;77.50;;;;;;5025054;28;20037;-72
2022/06/30 04:20:40;;;;;;;10.13;3.70;;;24.30;78.90;;;;;;5024661;28;20045;-72
2022/06/30 04:23:07;;;;;;;5.32;2.78;;;24.40;78.70;;;;;;5021682;28;20041;-73
2022/06/30 04:25:34;;;;;;;7.60;3.30;;;24.40;75.80;;;;;;5006370;28;20057;-73
2022/06/30 04:28:01;;;;;;;7.60;2.97;;;24.60;77.10;;;;;;5023105;28;20442;-74
2022/06/30 04:33:14;;;;;;;4.90;3.40;;;24.70;76.00;;;;;;5021150;28;20041;-74
2022/06/30 04:35:42;;;;;;;8.13;3.30;;;24.80;75.20;;;;;;5021282;28;21027;-74
2022/06/30 04:38:09;;;;;;;5.00;2.83;;;24.90;73.70;;;;;;5022104;28;20518;-73
2022/06/30 04:43:21;;;;;;;4.40;2.80;;;25.00;72.40;;;;;;5021552;28;20132;-73
2022/06/30 04:45:48;;;;;;;4.07;2.58;;;25.10;72.30;;;;;;5020791;28;20049;-74
2022/06/30 04:48:15;;;;;;;5.68;3.92;;;25.10;70.60;;;;;;5020846;28;20037;-73
2022/06/30 04:50:43;;;;;;;5.30;2.72;;;25.20;70.50;;;;;;5017192;28;20073;-73
2022/06/30 04:53:10;;;;;;;6.63;2.85;;;25.30;71.70;;;;;;5020291;28;20037;-73
2022/06/30 04:55:39;;;;;;;11.35;3.25;;;25.30;70.20;;;;;;5022312;28;20041;-74
2022/06/30 04:58:06;;;;;;;7.88;2.95;;;25.40;69.30;;;;;;5021265;28;20041;-73
2022/06/30 05:00:33;;;;;;;4.40;2.42;;;25.50;69.30;;;;;;5009541;28;21594;-73
2022/06/30 05:03:00;;;;;;;5.68;2.40;;;25.60;70.00;;;;;;5001961;28;20424;-74
2022/06/30 05:05:28;;;;;;;5.93;3.78;;;25.70;70.30;;;;;;5021655;28;20152;-74
2022/06/30 05:07:55;;;;;;;9.00;3.38;;;25.80;70.10;;;;;;4995744;28;20054;-76
2022/06/30 05:10:22;;;;;;;5.07;2.40;;;25.80;69.70;;;;;;5007695;28;20072;-74
2022/06/30 05:12:49;;;;;;;8.27;3.22;;;26.00;68.40;;;;;;5020815;28;20070;-74
2022/06/30 05:15:16;;;;;;;8.70;2.80;;;26.10;69.20;;;;;;5007436;28;20531;-74
2022/06/30 05:17:43;;;;;;;3.13;2.45;;;26.20;68.60;;;;;;4998948;28;20046;-75
2022/06/30 05:20:11;;;;;;;3.15;2.40;;;26.40;68.60;;;;;;5007755;28;20124;-74
2022/06/30 05:22:38;;;;;;;6.20;2.70;;;26.50;67.90;;;;;;5025002;28;20057;-75
2022/06/30 05:27:52;;;;;;;4.50;2.70;;;26.60;65.60;;;;;;5024236;28;21031;-74
2022/06/30 05:30:19;;;;;;;5.00;2.50;;;26.80;66.80;;;;;;4988551;28;20107;-74
2022/06/30 05:32:46;;;;;;;6.57;2.70;;;26.90;65.50;;;;;;5009095;28;20049;-75
2022/06/30 05:35:13;;;;;;;5.78;2.40;;;27.10;65.50;;;;;;5010820;28;20119;-75
2022/06/30 05:37:43;;;;;;;5.78;2.50;;;27.10;65.30;;;;;;5008624;28;20049;-75
2022/06/30 05:40:10;;;;;;;7.22;2.60;;;27.30;65.80;;;;;;5012646;28;20120;-76
2022/06/30 05:42:38;;;;;;;5.07;2.97;;;27.40;64.30;;;;;;5008730;28;20084;-74
2022/06/30 05:45:06;;;;;;;4.03;2.22;;;27.50;64.80;;;;;;4999258;28;20521;-74
2022/06/30 05:47:33;;;;;;;7.70;2.33;;;27.70;64.50;;;;;;4998350;28;20045;-74
2022/06/30 05:50:00;;;;;;;4.85;2.50;;;27.70;64.40;;;;;;4998118;28;20049;-74
2022/06/30 05:52:27;;;;;;;7.35;2.63;;;27.90;65.50;;;;;;5024901;28;20049;-75
2022/06/30 05:54:56;;;;;;;5.43;2.30;;;28.00;63.20;;;;;;5009270;28;22498;-74
2022/06/30 05:57:23;;;;;;;4.85;2.33;;;28.10;63.60;;;;;;5010323;28;20408;-75
2022/06/30 05:59:50;;;;;;;3.50;2.83;;;28.30;63.40;;;;;;5008230;28;20129;-75
2022/06/30 06:02:17;;;;;;;4.93;2.40;;;28.30;63.10;;;;;;5013565;28;20050;-75
2022/06/30 06:04:44;;;;;;;6.07;3.00;;;28.40;62.10;;;;;;5013078;28;20158;-74
2022/06/30 06:07:11;;;;;;;2.90;2.25;;;28.50;63.10;;;;;;5005857;28;20128;-74
2022/06/30 06:09:38;;;;;;;4.60;2.50;;;28.60;62.90;;;;;;5004677;28;20041;-74
2022/06/30 06:12:06;;;;;;;5.45;2.30;;;28.80;61.80;;;;;;4993113;28;20046;-76
2022/06/30 06:14:33;;;;;;;2.35;1.90;;;28.90;62.20;;;;;;5007922;28;20050;-76
2022/06/30 06:17:00;;;;;;;5.65;2.45;;;29.10;61.30;;;;;;5000143;28;22498;-75
2022/06/30 06:19:27;;;;;;;6.00;3.03;;;29.10;60.00;;;;;;5007214;28;22434;-75
2022/06/30 06:21:54;;;;;;;5.75;2.88;;;29.10;60.70;;;;;;5003520;28;20045;-74
2022/06/30 06:24:21;;;;;;;5.20;2.58;;;29.10;60.80;;;;;;5009401;28;20056;-74
2022/06/30 06:26:49;;;;;;;4.28;2.85;;;29.20;60.60;;;;;;5001198;28;20160;-74
2022/06/30 06:29:16;;;;;;;5.97;2.70;;;29.40;61.70;;;;;;5015209;28;20064;-75
2022/06/30 06:31:43;;;;;;;5.60;2.33;;;29.50;59.80;;;;;;5010330;28;20060;-76
2022/06/30 06:34:10;;;;;;;3.95;3.28;;;29.60;59.20;;;;;;5008301;28;20044;-75
2022/06/30 06:36:37;;;;;;;5.00;2.35;;;29.70;58.90;;;;;;5015531;28;20397;-75
2022/06/30 06:39:05;;;;;;;3.92;2.10;;;29.80;55.50;;;;;;5024932;28;20828;-75
2022/06/30 06:41:33;;;;;;;4.63;2.10;;;29.90;57.10;;;;;;5012049;28;20140;-74
2022/06/30 06:44:00;;;;;;;3.40;2.40;;;30.10;56.90;;;;;;5012089;28;20052;-75
2022/06/30 06:46:27;;;;;;;5.55;2.42;;;30.10;55.50;;;;;;4992354;28;20492;-74
2022/06/30 06:49:01;;;;;;;3.92;2.03;;;30.10;56.50;;;;;;5011192;28;20054;-73
2022/06/30 06:51:28;;;;;;;4.57;2.20;;;30.20;55.30;;;;;;5007669;28;20122;-74
2022/06/30 06:53:55;;;;;;;4.60;2.22;;;30.30;55.80;;;;;;4990795;28;20085;-74
2022/06/30 06:56:23;;;;;;;6.18;2.28;;;30.50;56.60;;;;;;5005728;28;20053;-75
2022/06/30 06:58:57;;;;;;;3.50;2.20;;;30.70;56.50;;;;;;4994761;28;20050;-75
2022/06/30 07:01:24;;;;;;;3.95;2.38;;;30.80;54.40;;;;;;4989393;28;20045;-73
2022/06/30 07:03:52;;;;;;;7.10;2.42;;;30.80;54.00;;;;;;5005291;28;20073;-75
2022/06/30 07:06:19;;;;;;;5.50;1.88;;;30.90;55.00;;;;;;5000047;28;20052;-74
2022/06/30 07:08:46;;;;;;;4.32;2.17;;;31.00;55.20;;;;;;4981689;28;20046;-73
2022/06/30 07:11:13;;;;;;;3.95;2.50;;;31.00;54.30;;;;;;4994199;28;20100;-74
2022/06/30 07:13:40;;;;;;;4.50;2.28;;;31.10;54.60;;;;;;5002215;28;20060;-73
2022/06/30 07:16:07;;;;;;;3.88;2.00;;;31.20;54.60;;;;;;5015743;28;20065;-75
2022/06/30 07:18:34;;;;;;;3.20;1.90;;;31.20;52.90;;;;;;4996388;28;20045;-74
2022/06/30 07:21:01;;;;;;;2.20;1.98;;;31.30;54.60;;;;;;4996449;28;20041;-74
2022/06/30 07:23:28;;;;;;;3.20;2.00;;;31.40;53.20;;;;;;5001553;28;20049;-73
2022/06/30 07:26:00;;;;;;;4.40;2.42;;;31.50;53.40;;;;;;5004801;28;20050;-75
2022/06/30 07:28:28;;;;;;;3.40;2.13;;;31.40;51.90;;;;;;5004760;28;20080;-75
2022/06/30 07:31:15;;;;;;;8.30;2.97;;;31.40;52.60;;;;;;5005350;28;20088;-76
2022/06/30 07:33:44;;;;;;;6.97;1.90;;;31.60;52.40;;;;;;4999202;28;20046;-74
2022/06/30 07:36:11;;;;;;;6.15;1.70;;;31.60;51.80;;;;;;4983415;28;20057;-73
2022/06/30 07:38:40;;;;;;;4.63;1.80;;;31.70;51.80;;;;;;4998454;28;20412;-74
2022/06/30 07:41:07;;;;;;;3.20;2.40;;;31.80;52.30;;;;;;4996888;28;20685;-77
2022/06/30 07:43:34;;;;;;;5.18;1.77;;;31.90;51.70;;;;;;5000375;28;20409;-73
2022/06/30 07:46:01;;;;;;;2.92;1.75;;;31.90;51.80;;;;;;4996257;28;20688;-73
2022/06/30 07:48:29;;;;;;;3.42;1.75;;;32.00;52.10;;;;;;5001966;28;20071;-74
2022/06/30 07:50:56;;;;;;;2.53;1.95;;;32.00;51.40;;;;;;5001292;28;20041;-73
2022/06/30 07:53:23;;;;;;;3.70;2.28;;;32.00;50.80;;;;;;4977806;28;20054;-75
2022/06/30 07:55:50;;;;;;;4.07;1.88;;;32.00;50.50;;;;;;4989697;28;20045;-75
2022/06/30 07:58:17;;;;;;;7.82;2.20;;;32.00;49.90;;;;;;5004920;28;20156;-74
2022/06/30 08:00:45;;;;;;;5.03;2.33;;;32.20;50.40;;;;;;4996172;28;20120;-73
2022/06/30 08:03:13;;;;;;;4.43;1.65;;;32.20;50.40;;;;;;4998591;28;20050;-74
2022/06/30 08:05:40;;;;;;;4.10;1.92;;;32.30;50.60;;;;;;4993625;28;20056;-73
2022/06/30 08:08:07;;;;;;;2.88;1.70;;;32.20;49.70;;;;;;5011286;28;20093;-74
2022/06/30 08:10:34;;;;;;;4.43;2.20;;;32.30;49.90;;;;;;4998650;28;20050;-74
2022/06/30 08:13:01;;;;;;;3.40;1.95;;;32.30;49.70;;;;;;4998042;28;20048;-73
2022/06/30 08:15:29;;;;;;;4.55;2.20;;;32.30;50.40;;;;;;4995502;28;20140;-74
2022/06/30 08:18:01;;;;;;;4.57;2.30;;;32.40;50.30;;;;;;5003411;28;20049;-76
2022/06/30 08:20:29;;;;;;;5.78;1.90;;;32.40;50.00;;;;;;5000955;28;20175;-74
2022/06/30 08:22:56;;;;;;;4.25;2.28;;;32.60;50.10;;;;;;5004790;28;20052;-75
2022/06/30 08:25:23;;;;;;;2.30;1.92;;;32.60;49.60;;;;;;5008453;28;20122;-75
2022/06/30 08:27:51;;;;;;;4.00;2.03;;;32.70;49.30;;;;;;5009895;28;20056;-74
2022/06/30 08:30:18;;;;;;;3.22;2.17;;;32.70;48.50;;;;;;4976216;28;20514;-75
2022/06/30 08:32:45;;;;;;;3.78;2.10;;;32.70;48.80;;;;;;5011567;28;20056;-75
2022/06/30 08:35:13;;;;;;;5.85;2.53;;;32.70;49.10;;;;;;5009383;28;20053;-77
2022/06/30 08:37:41;;;;;;;4.53;2.30;;;32.70;48.40;;;;;;5012626;28;20417;-76
2022/06/30 08:42:59;;;;;;;5.40;1.67;;;32.70;47.30;;;;;;5002420;28;20073;-75
2022/06/30 08:45:29;;;;;;;3.85;1.83;;;32.80;48.90;;;;;;4995438;28;20053;-74
2022/06/30 08:47:57;;;;;;;4.07;1.73;;;32.90;48.60;;;;;;4991772;28;20072;-74
2022/06/30 08:50:26;;;;;;;5.07;1.65;;;32.80;47.60;;;;;;4999481;28;20060;-76
2022/06/30 08:52:59;;;;;;;5.55;1.48;;;32.90;47.50;;;;;;5000860;28;20549;-77
2022/06/30 08:55:31;;;;;;;2.38;1.50;;;33.00;47.40;;;;;;5006100;28;20048;-75
2022/06/30 08:58:02;;;;;;;2.05;1.60;;;33.00;46.80;;;;;;5012793;28;20132;-74
2022/06/30 09:00:29;;;;;;;5.68;1.98;;;33.10;47.60;;;;;;5003031;28;20136;-75
2022/06/30 09:02:57;;;;;;;5.90;1.35;;;33.00;47.30;;;;;;4996366;28;20163;-76
2022/06/30 09:05:24;;;;;;;2.63;1.65;;;33.10;48.20;;;;;;4987351;28;22372;-75
2022/06/30 09:07:51;;;;;;;4.30;1.70;;;33.20;47.80;;;;;;4992837;28;20053;-74
2022/06/30 09:10:50;;;;;;;8.35;1.83;;;33.20;46.60;;;;;;4989426;28;20046;-76
2022/06/30 09:13:18;;;;;;;3.80;1.83;;;33.10;45.80;;;;;;4987776;28;20057;-75
2022/06/30 09:15:47;;;;;;;3.15;1.98;;;33.10;45.80;;;;;;4996947;28;20048;-75
2022/06/30 09:18:26;;;;;;;4.88;1.85;;;33.10;46.30;;;;;;4994160;28;20073;-74
2022/06/30 09:20:54;;;;;;;4.60;1.92;;;33.30;46.10;;;;;;4996175;28;20816;-76
2022/06/30 09:23:25;;;;;;;2.20;1.40;;;33.30;46.30;;;;;;4982923;28;20041;-75
2022/06/30 09:25:55;;;;;;;3.75;1.60;;;33.20;45.30;;;;;;4979654;28;20190;-75
2022/06/30 09:28:39;;;;;;;3.30;1.48;;;33.40;44.80;;;;;;4992861;28;20054;-75
2022/06/30 09:31:34;;;;;;;5.43;1.55;;;33.40;44.70;;;;;;4991860;28;20128;-75
2022/06/30 09:34:21;;;;;;;2.67;1.30;;;33.40;44.40;;;;;;4990026;28;20080;-75
2022/06/30 09:36:51;;;;;;;3.55;1.63;;;33.40;45.50;;;;;;4991191;28;20057;-74
2022/06/30 09:39:20;;;;;;;3.97;1.20;;;33.40;44.60;;;;;;4971556;28;20061;-74
2022/06/30 09:41:50;;;;;;;3.55;2.10;;;33.40;44.30;;;;;;4990559;28;20036;-73
2022/06/30 09:44:24;;;;;;;3.10;1.65;;;33.40;45.50;;;;;;5003564;28;20041;-73
2022/06/30 09:47:06;;;;;;;7.10;1.75;;;33.50;45.30;;;;;;4987975;28;20080;-73
2022/06/30 09:49:39;;;;;;;2.58;1.15;;;33.50;45.90;;;;;;4989925;28;20045;-74
2022/06/30 09:52:20;;;;;;;2.65;1.17;;;33.50;45.00;;;;;;4984349;28;20221;-74
2022/06/30 09:55:06;;;;;;;5.18;1.40;;;33.50;45.80;;;;;;4985626;28;20041;-73
2022/06/30 09:57:45;;;;;;;4.10;1.58;;;33.50;46.40;;;;;;4991297;28;21301;-74
2022/06/30 10:00:16;;;;;;;;;;;33.50;44.30;;;;;;5016208;28;20125;-76
2022/06/30 10:02:46;;;;;;;3.03;1.52;;;33.60;44.80;;;;;;4983983;28;20307;-76
2022/06/30 10:05:18;;;;;;;4.68;1.40;;;33.60;45.00;;;;;;4991862;28;20049;-76
2022/06/30 10:07:46;;;;;;;3.65;1.45;;;33.70;45.60;;;;;;4991786;28;20124;-75
2022/06/30 10:10:17;;;;;;;5.57;1.30;;;33.70;44.90;;;;;;4996656;28;20049;-75
2022/06/30 10:12:45;;;;;;;4.60;1.02;;;33.80;45.60;;;;;;5000823;28;22541;-75
2022/06/30 10:15:15;;;;;;;1.95;1.08;;;33.70;42.70;;;;;;5003082;28;20042;-75
2022/06/30 10:17:45;;;;;;;9.23;1.40;;;33.70;41.80;;;;;;5016217;28;20052;-76
2022/06/30 10:20:22;;;;;;;5.35;0.90;;;33.70;41.50;;;;;;5003717;28;20045;-75
2022/06/30 10:22:49;;;;;;;4.23;1.07;;;33.70;42.00;;;;;;4998015;28;20045;-74
2022/06/30 10:25:17;;;;;;;4.43;1.00;;;33.60;41.30;;;;;;4987629;28;20176;-75
2022/06/30 10:27:49;;;;;;;1.55;0.90;;;33.70;42.20;;;;;;4985970;28;20053;-76
2022/06/30 10:30:21;;;;;;;3.72;1.38;;;33.80;43.10;;;;;;4992118;28;20195;-74
2022/06/30 10:33:10;;;;;;;3.22;1.23;;;33.90;42.80;;;;;;4982011;28;20057;-74
2022/06/30 10:35:52;;;;;;;3.78;1.00;;;33.90;42.00;;;;;;5013672;28;20968;-76
2022/06/30 10:38:22;;;;;;;5.97;1.27;;;33.80;42.20;;;;;;4993359;28;20186;-77
2022/06/30 10:40:58;;;;;;;8.30;1.10;;;33.90;41.60;;;;;;4995997;28;20837;-74
2022/06/30 10:43:32;;;;;;;2.47;1.17;;;33.90;41.90;;;;;;5006084;28;20053;-74
2022/06/30 10:46:02;;;;;;;1.65;1.27;;;33.90;42.40;;;;;;4992594;28;20179;-74
2022/06/30 10:49:09;;;;;;;1.80;1.20;;;33.90;42.60;;;;;;4998325;28;20053;-75
2022/06/30 10:51:36;;;;;;;3.47;1.15;;;34.00;42.50;;;;;;4997373;28;20244;-77
2022/06/30 10:54:04;;;;;;;3.95;1.20;;;34.10;42.40;;;;;;4997619;28;22489;-75
2022/06/30 10:56:50;;;;;;;2.33;1.30;;;34.10;41.70;;;;;;5009169;28;20048;-75
2022/06/30 10:59:25;;;;;;;2.88;1.20;;;34.10;41.60;;;;;;4993662;28;22451;-73
2022/06/30 11:02:11;;;;;;;2.90;1.00;;;34.10;41.80;;;;;;4987025;28;20527;-74
2022/06/30 11:04:41;;;;;;;5.85;1.10;;;34.10;41.00;;;;;;4992863;28;20041;-73
2022/06/30 11:07:24;;;;;;;4.53;1.00;;;34.10;40.50;;;;;;4995613;28;20547;-77
2022/06/30 11:09:52;;;;;;;5.47;0.90;;;34.20;40.90;;;;;;5008846;28;20146;-75
2022/06/30 11:12:24;;;;;;;4.13;1.20;;;34.20;40.70;;;;;;5000517;28;20048;-74
2022/06/30 11:14:53;;;;;;;4.05;0.90;;;34.30;40.40;;;;;;4993907;28;20037;-73
2022/06/30 11:17:24;;;;;;;3.40;1.38;;;34.20;39.20;;;;;;4999383;28;20419;-76
2022/06/30 11:20:12;;;;;;;4.72;1.10;;;34.20;39.30;;;;;;4990471;28;20126;-76
2022/06/30 11:22:41;;;;;;;2.38;0.80;;;34.20;38.90;;;;;;4968412;28;20080;-75
2022/06/30 11:27:17;;;;;;;2.83;1.20;;;34.20;40.00;;;;;;4997786;28;20046;-74
2022/06/30 11:28:02;;;;;;;2.72;0.95;;;34.30;39.80;;;;;;4976010;28;20053;-76
2022/06/30 11:30:31;;;;;;;2.42;1.10;;;34.30;40.90;;;;;;4986862;28;20045;-75
2022/06/30 11:33:00;;;;;;;3.80;1.08;;;34.30;41.00;;;;;;4984767;28;20612;-75
2022/06/30 11:35:28;;;;;;;4.43;0.90;;;34.30;40.80;;;;;;4982030;28;22611;-74
2022/06/30 11:37:55;;;;;;;2.38;1.17;;;34.40;40.10;;;;;;4984096;28;20049;-76
2022/06/30 11:40:23;;;;;;;1.73;1.20;;;34.30;39.90;;;;;;5001763;28;20585;-74
2022/06/30 11:42:53;;;;;;;2.97;1.13;;;34.50;41.50;;;;;;4986238;28;20118;-75
2022/06/30 11:45:23;;;;;;;2.35;1.27;;;34.50;41.00;;;;;;4996251;28;20052;-73
2022/06/30 11:48:05;;;;;;;3.30;1.23;;;34.50;40.10;;;;;;4991239;28;20079;-75
2022/06/30 11:50:33;;;;;;;5.65;0.90;;;34.50;40.20;;;;;;4982046;28;20194;-76
2022/06/30 11:53:00;;;;;;;3.90;0.93;;;34.60;40.10;;;;;;4981663;28;20057;-74
2022/06/30 11:55:28;;;;;;;4.10;1.35;;;34.60;39.40;;;;;;4978361;28;20572;-74
2022/06/30 11:57:56;;;;;;;2.28;1.23;;;34.70;39.90;;;;;;4973181;28;20172;-74
2022/06/30 12:00:31;;;;;;;2.03;1.00;;;34.70;39.60;;;;;;4985584;28;20413;-76
2022/06/30 12:02:58;;;;;;;2.25;1.10;;;34.60;39.20;;;;;;4995676;28;20696;-75
2022/06/30 12:05:29;;;;;;;3.35;1.15;;;34.60;40.00;;;;;;4981916;28;20561;-75
2022/06/30 12:07:56;;;;;;;1.80;1.00;;;34.60;39.30;;;;;;4991772;28;20100;-75
2022/06/30 12:10:24;;;;;;;4.40;0.90;;;34.60;39.30;;;;;;4978589;28;20092;-73
2022/06/30 12:12:58;;;;;;;2.38;1.10;;;34.60;40.20;;;;;;4982380;28;20192;-73
2022/06/30 12:15:26;;;;;;;2.85;0.90;;;34.80;39.60;;;;;;4983655;28;20042;-74
2022/06/30 12:17:55;;;;;;;3.17;0.80;;;34.80;39.20;;;;;;4973432;28;20049;-75
2022/06/30 12:20:26;;;;;;;1.23;0.90;;;34.80;39.40;;;;;;4980231;28;20054;-76
2022/06/30 12:22:53;;;;;;;1.40;0.70;;;34.70;39.30;;;;;;4995126;28;20588;-75
2022/06/30 12:25:21;;;;;;;1.58;0.80;;;34.80;39.10;;;;;;4975800;28;20045;-75
2022/06/30 12:27:54;;;;;;;1.80;0.90;;;34.70;38.10;;;;;;4981492;28;20701;-76
2022/06/30 12:30:24;;;;;;;3.75;1.42;;;34.60;37.20;;;;;;4983341;28;20054;-75
2022/06/30 12:32:57;;;;;;;1.50;0.70;;;34.70;37.40;;;;;;4985624;28;20124;-74
2022/06/30 12:35:29;;;;;;;2.60;0.93;;;34.70;38.30;;;;;;4977329;28;20051;-75
2022/06/30 12:37:57;;;;;;;1.30;0.50;;;34.80;36.70;;;;;;4964600;28;20061;-76
2022/06/30 12:40:26;;;;;;;1.40;0.85;;;34.80;37.30;;;;;;4978333;28;20041;-74
2022/06/30 12:42:56;;;;;;;1.65;1.00;;;34.80;38.40;;;;;;4982753;28;20049;-76
2022/06/30 12:45:42;;;;;;;1.70;0.85;;;34.90;37.80;;;;;;4983139;28;20162;-75
2022/06/30 12:48:09;;;;;;;4.13;0.80;;;34.90;39.00;;;;;;4985183;28;20053;-76
2022/06/30 12:50:39;;;;;;;2.33;1.10;;;34.80;38.70;;;;;;4989540;28;20065;-74
2022/06/30 12:53:22;;;;;;;4.68;1.00;;;34.80;37.30;;;;;;4982141;28;20049;-75
2022/06/30 12:55:56;;;;;;;3.22;1.13;;;34.90;37.90;;;;;;4986094;28;20045;-74
2022/06/30 12:58:23;;;;;;;4.50;0.90;;;34.90;38.80;;;;;;4978859;28;20716;-75
2022/06/30 13:00:54;;;;;;;2.50;1.23;;;34.80;38.40;;;;;;4986379;28;20404;-74
2022/06/30 13:03:21;;;;;;;5.45;1.17;;;34.80;39.30;;;;;;4981859;28;20052;-75
2022/06/30 13:05:49;;;;;;;2.53;0.85;;;34.90;39.90;;;;;;4982232;28;20103;-76
2022/06/30 13:08:16;;;;;;;3.78;0.70;;;35.00;38.40;;;;;;4982035;28;20515;-76
2022/06/30 13:11:04;;;;;;;1.45;0.88;;;35.00;39.10;;;;;;4971562;28;20084;-76
2022/06/30 13:13:30;;;;;;;2.00;1.20;;;35.00;38.30;;;;;;4982891;28;22361;-74